Time;durP1;ratioP1;P1;durP2;ratioP2;P2;SDS_P1;SDS_P2;PMS_P1;PMS_P2;Temp;Humidity;BMP_temperature;BMP_pressure;BME280_temperature;BME280_humidity;BME280_pressure;Samples;Min_cycle;Max_cycle;Signal;HPM_P1;HPM_P2
2022/10/31 00:00:27;;;;;;;;;;;9.00;99.90;;;;;;5036827;28;19921;-71
2022/10/31 00:02:53;;;;;;;;;;;9.00;99.90;;;;;;5054450;28;19913;-71
2022/10/31 00:05:18;;;;;;;;;;;8.90;99.90;;;;;;5054558;28;19909;-71
2022/10/31 00:07:44;;;;;;;;;;;8.90;99.90;;;;;;5054612;28;20110;-71
2022/10/31 00:10:09;;;;;;;;;;;8.90;99.90;;;;;;5054101;28;19952;-70
2022/10/31 00:12:35;;;;;;;;;;;8.80;99.90;;;;;;5054012;28;19928;-71
2022/10/31 00:15:00;;;;;;;;;;;8.80;99.90;;;;;;5036006;28;19963;-70
2022/10/31 00:17:26;;;;;;;;;;;8.80;99.90;;;;;;5053998;28;19952;-71
2022/10/31 00:19:52;;;;;;;;;;;8.70;99.90;;;;;;5053977;28;19909;-71
2022/10/31 00:22:20;;;;;;;;;;;8.70;99.90;;;;;;5053838;28;19917;-71
2022/10/31 00:24:46;;;;;;;;;;;8.60;99.90;;;;;;5054121;28;19912;-71
2022/10/31 00:27:11;;;;;;;;;;;8.60;99.90;;;;;;5053849;28;20339;-71
2022/10/31 00:29:37;;;;;;;;;;;8.60;99.90;;;;;;5054050;28;20369;-71
2022/10/31 00:32:02;;;;;;;;;;;8.60;99.90;;;;;;5053938;28;20312;-71
2022/10/31 00:34:28;;;;;;;;;;;8.50;99.90;;;;;;5053704;28;19916;-71
2022/10/31 00:36:53;;;;;;;;;;;8.50;99.90;;;;;;5053957;28;20285;-71
2022/10/31 00:39:19;;;;;;;;;;;8.40;99.90;;;;;;5053663;28;19914;-71
2022/10/31 00:41:44;;;;;;;;;;;8.40;99.90;;;;;;5053564;28;19944;-71
2022/10/31 00:44:10;;;;;;;;;;;8.40;99.90;;;;;;5053564;28;19913;-71
2022/10/31 00:46:35;;;;;;;;;;;8.40;99.90;;;;;;5053512;28;20014;-71
2022/10/31 00:49:01;;;;;;;;;;;8.30;99.90;;;;;;5053383;28;20404;-71
2022/10/31 00:51:26;;;;;;;;;;;8.30;99.90;;;;;;5053411;28;20383;-71
2022/10/31 00:53:52;;;;;;;;;;;8.30;99.90;;;;;;5053422;28;20338;-71
2022/10/31 00:56:18;;;;;;;;;;;8.30;99.90;;;;;;5054096;28;20345;-71
2022/10/31 00:58:43;;;;;;;;;;;8.30;99.90;;;;;;5053820;28;19919;-71
2022/10/31 01:01:09;;;;;;;;;;;8.20;99.90;;;;;;5054060;28;20008;-71
2022/10/31 01:03:34;;;;;;;;;;;8.20;99.90;;;;;;5053439;28;19993;-71
2022/10/31 01:06:04;;;;;;;;;;;8.20;99.90;;;;;;5053761;28;19913;-71
2022/10/31 01:08:30;;;;;;;;;;;8.20;99.90;;;;;;5053324;28;19936;-71
2022/10/31 01:11:06;;;;;;;;;;;8.10;99.90;;;;;;5053449;28;19908;-71
2022/10/31 01:13:32;;;;;;;;;;;8.10;99.90;;;;;;5053186;28;20377;-71
2022/10/31 01:15:58;;;;;;;;;;;8.10;99.90;;;;;;5053642;28;19924;-71
2022/10/31 01:18:24;;;;;;;;;;;8.10;99.90;;;;;;5053386;28;19908;-71
2022/10/31 01:21:00;;;;;;;;;;;8.10;99.90;;;;;;5053337;28;19931;-71
2022/10/31 01:23:25;;;;;;;;;;;8.10;99.90;;;;;;5053558;28;20015;-71
2022/10/31 01:25:58;;;;;;;;;;;8.00;99.90;;;;;;5053270;28;19945;-71
2022/10/31 01:28:24;;;;;;;;;;;8.00;99.90;;;;;;5053414;28;20008;-71
2022/10/31 01:30:49;;;;;;;;;;;8.00;99.90;;;;;;5053212;28;19944;-71
2022/10/31 01:33:15;;;;;;;;;;;7.90;99.90;;;;;;5053133;28;19913;-71
2022/10/31 01:35:40;;;;;;;;;;;7.90;99.90;;;;;;5053213;28;19942;-71
2022/10/31 01:38:06;;;;;;;;;;;7.90;99.90;;;;;;5053438;28;19913;-71
2022/10/31 01:40:31;;;;;;;;;;;7.90;99.90;;;;;;5053120;28;19920;-71
2022/10/31 01:42:57;;;;;;;;;;;7.90;99.90;;;;;;5053360;28;19916;-71
2022/10/31 01:45:23;;;;;;;;;;;7.80;99.90;;;;;;5053642;28;19960;-71
2022/10/31 01:47:49;;;;;;;;;;;7.80;99.90;;;;;;5035123;28;19917;-71
2022/10/31 01:50:41;;;;;;;;;;;7.80;99.90;;;;;;5053584;28;20372;-71
2022/10/31 01:53:08;;;;;;;;;;;7.80;99.90;;;;;;5049884;28;20331;-71
2022/10/31 01:55:35;;;;;;;;;;;7.70;99.90;;;;;;5053305;28;20284;-71
2022/10/31 01:58:09;;;;;;;;;;;7.70;99.90;;;;;;5035662;28;20319;-71
2022/10/31 02:00:35;;;;;;;;;;;7.70;99.90;;;;;;5053254;28;19944;-71
2022/10/31 02:03:00;;;;;;;;;;;7.60;99.90;;;;;;5053383;28;19920;-71
2022/10/31 02:05:27;;;;;;;;;;;7.50;99.90;;;;;;5053189;28;19924;-71
2022/10/31 02:07:57;;;;;;;;;;;7.40;99.90;;;;;;5053045;28;19919;-71
2022/10/31 02:10:22;;;;;;;;;;;7.30;99.90;;;;;;5052852;28;19913;-71
2022/10/31 02:12:51;;;;;;;;;;;7.20;99.90;;;;;;5052793;28;20432;-72
2022/10/31 02:15:16;;;;;;;;;;;7.20;99.90;;;;;;5053086;28;19982;-71
2022/10/31 02:17:42;;;;;;;;;;;7.20;99.90;;;;;;5053090;28;20369;-71
2022/10/31 02:20:29;;;;;;;;;;;7.30;99.90;;;;;;5055167;28;21602;-71
2022/10/31 02:22:55;;;;;;;;;;;7.30;99.90;;;;;;5056411;28;19916;-71
2022/10/31 02:25:20;;;;;;;;;;;7.30;99.90;;;;;;5056289;28;19913;-71
2022/10/31 02:28:01;;;;;;;;;;;7.30;99.90;;;;;;5056189;28;20015;-71
2022/10/31 02:30:32;;;;;;;;;;;7.30;99.90;;;;;;5056181;28;19908;-71
2022/10/31 02:33:07;;;;;;;;;;;7.30;99.90;;;;;;5056253;28;19916;-71
2022/10/31 02:35:33;;;;;;;;;;;7.20;99.90;;;;;;5056679;28;20368;-71
2022/10/31 02:38:10;;;;;;;;;;;7.20;99.90;;;;;;5056060;28;19909;-71
2022/10/31 02:40:40;;;;;;;;;;;7.20;99.90;;;;;;5056052;28;19909;-71
2022/10/31 02:43:09;;;;;;;;;;;7.10;99.90;;;;;;5055943;28;20368;-71
2022/10/31 02:45:47;;;;;;;;;;;7.10;99.90;;;;;;5056212;28;19909;-71
2022/10/31 02:48:18;;;;;;;;;;;7.20;99.90;;;;;;5056122;28;19913;-71
2022/10/31 02:50:45;;;;;;;;;;;7.20;99.90;;;;;;5056139;28;20004;-71
2022/10/31 02:53:14;;;;;;;;;;;7.20;99.90;;;;;;5055812;28;19960;-71
2022/10/31 02:55:44;;;;;;;;;;;7.20;99.90;;;;;;5055792;28;19932;-71
2022/10/31 02:58:14;;;;;;;;;;;7.20;99.90;;;;;;5055680;28;20384;-71
2022/10/31 03:00:51;;;;;;;;;;;7.10;99.90;;;;;;5037687;28;19909;-72
2022/10/31 03:03:25;;;;;;;;;;;7.10;99.90;;;;;;5055883;28;20011;-71
2022/10/31 03:05:57;;;;;;;;;;;7.10;99.90;;;;;;5055852;28;19909;-71
2022/10/31 03:08:41;;;;;;;;;;;7.10;99.90;;;;;;5055453;28;19912;-71
2022/10/31 03:11:07;;;;;;;;;;;7.00;99.90;;;;;;5055716;28;19916;-71
2022/10/31 03:13:36;;;;;;;;;;;6.90;99.90;;;;;;5055567;28;19971;-71
2022/10/31 03:16:08;;;;;;;;;;;6.80;99.90;;;;;;5055355;28;19948;-71
2022/10/31 03:18:37;;;;;;;;;;;6.80;99.90;;;;;;5055588;28;19983;-71
2022/10/31 03:21:23;;;;;;;;;;;6.80;99.90;;;;;;5055227;28;19908;-72
2022/10/31 03:23:50;;;;;;;;;;;6.80;99.90;;;;;;5055753;28;19909;-72
2022/10/31 03:26:16;;;;;;;;;;;6.90;99.90;;;;;;5055470;28;19916;-72
2022/10/31 03:28:45;;;;;;;;;;;6.90;99.90;;;;;;5055031;28;19913;-72
2022/10/31 03:31:13;;;;;;;;;;;6.90;99.90;;;;;;5053985;28;19955;-72
2022/10/31 03:33:42;;;;;;;;;;;6.90;99.90;;;;;;5055222;28;19908;-72
2022/10/31 03:36:08;;;;;;;;;;;6.90;99.90;;;;;;5055278;28;19912;-72
2022/10/31 03:38:35;;;;;;;;;;;6.90;99.90;;;;;;5054900;28;19935;-72
2022/10/31 03:41:03;;;;;;;;;;;6.90;99.90;;;;;;5055098;28;19909;-72
2022/10/31 03:43:32;;;;;;;;;;;6.90;99.90;;;;;;5054759;28;19951;-72
2022/10/31 03:45:57;;;;;;;;;;;6.90;99.90;;;;;;5054991;28;19925;-72
2022/10/31 03:48:23;;;;;;;;;;;6.90;99.90;;;;;;5054890;28;20011;-72
2022/10/31 03:50:49;;;;;;;;;;;6.90;99.90;;;;;;5054988;28;19954;-72
2022/10/31 03:53:17;;;;;;;;;;;6.80;99.90;;;;;;5054641;28;19908;-72
2022/10/31 03:55:46;;;;;;;;;;;6.80;99.90;;;;;;5054835;28;19909;-72
2022/10/31 03:58:18;;;;;;;;;;;6.80;99.90;;;;;;5054522;28;20428;-72
2022/10/31 04:00:45;;;;;;;;;;;6.80;99.90;;;;;;5054832;28;19909;-72
2022/10/31 04:03:16;;;;;;;;;;;6.80;99.90;;;;;;5036497;28;19909;-72
2022/10/31 04:05:42;;;;;;;;;;;6.80;99.90;;;;;;5054718;28;19908;-72
2022/10/31 04:08:09;;;;;;;;;;;6.80;99.90;;;;;;5054511;28;19924;-72
2022/10/31 04:10:36;;;;;;;;;;;6.80;99.90;;;;;;5054239;28;19988;-72
2022/10/31 04:13:11;;;;;;;;;;;6.80;99.90;;;;;;5053088;28;20345;-72
2022/10/31 04:15:38;;;;;;;;;;;6.80;99.90;;;;;;5053991;28;20404;-72
2022/10/31 04:18:04;;;;;;;;;;;6.80;99.90;;;;;;5054275;28;20276;-72
2022/10/31 04:20:34;;;;;;;;;;;6.80;99.90;;;;;;5053348;28;19909;-72
2022/10/31 04:23:00;;;;;;;;;;;6.70;99.90;;;;;;5054446;28;20277;-72
2022/10/31 04:25:26;;;;;;;;;;;6.70;99.90;;;;;;5053985;28;19922;-72
2022/10/31 04:27:51;;;;;;;;;;;6.70;99.90;;;;;;5054139;28;20447;-72
2022/10/31 04:30:17;;;;;;;;;;;6.70;99.90;;;;;;5035788;28;19913;-72
2022/10/31 04:32:42;;;;;;;;;;;6.60;99.90;;;;;;5053953;28;19917;-72
2022/10/31 04:35:08;;;;;;;;;;;6.70;99.90;;;;;;5052245;28;19917;-72
2022/10/31 04:37:33;;;;;;;;;;;6.70;99.90;;;;;;5053712;28;19913;-72
2022/10/31 04:39:59;;;;;;;;;;;6.70;99.90;;;;;;5053701;28;19939;-72
2022/10/31 04:42:25;;;;;;;;;;;6.60;99.90;;;;;;5053335;28;19913;-72
2022/10/31 04:44:50;;;;;;;;;;;6.70;99.90;;;;;;5053643;28;19919;-72
2022/10/31 04:47:16;;;;;;;;;;;6.60;99.90;;;;;;5053541;28;20027;-72
2022/10/31 04:49:41;;;;;;;;;;;6.60;99.90;;;;;;5053227;28;19966;-72
2022/10/31 04:52:07;;;;;;;;;;;6.60;99.90;;;;;;5047046;28;19914;-72
2022/10/31 04:54:33;;;;;;;;;;;6.60;99.90;;;;;;5053637;28;20316;-72
2022/10/31 04:56:58;;;;;;;;;;;6.50;99.90;;;;;;5053452;28;19913;-72
2022/10/31 04:59:24;;;;;;;;;;;6.50;99.90;;;;;;5053399;28;19913;-72
2022/10/31 05:01:50;;;;;;;;;;;6.40;99.90;;;;;;5053315;28;19970;-72
2022/10/31 05:04:15;;;;;;;;;;;6.40;99.90;;;;;;5053364;28;19938;-72
2022/10/31 05:06:41;;;;;;;;;;;6.30;99.90;;;;;;5035406;28;19959;-72
2022/10/31 05:09:06;;;;;;;;;;;6.30;99.90;;;;;;5034891;28;19978;-72
2022/10/31 05:11:32;;;;;;;;;;;6.40;99.90;;;;;;5053289;28;20054;-72
2022/10/31 05:13:57;;;;;;;;;;;6.30;99.90;;;;;;5053235;28;19927;-72
2022/10/31 05:16:23;;;;;;;;;;;6.30;99.90;;;;;;5053405;28;19980;-72
2022/10/31 05:18:48;;;;;;;;;;;6.30;99.90;;;;;;5053342;28;19913;-72
2022/10/31 05:21:14;;;;;;;;;;;6.30;99.90;;;;;;5053582;28;20011;-72
2022/10/31 05:23:39;;;;;;;;;;;6.30;99.90;;;;;;5053259;28;19916;-72
2022/10/31 05:26:05;;;;;;;;;;;6.30;99.90;;;;;;5053554;28;19917;-72
2022/10/31 05:28:31;;;;;;;;;;;6.30;99.90;;;;;;5053780;28;19978;-72
2022/10/31 05:30:56;;;;;;;;;;;6.30;99.90;;;;;;5053581;28;19917;-72
2022/10/31 05:33:22;;;;;;;;;;;6.30;99.90;;;;;;5053724;28;19913;-72
2022/10/31 05:35:47;;;;;;;;;;;6.20;99.90;;;;;;5053202;28;20027;-72
2022/10/31 05:38:13;;;;;;;;;;;6.20;99.90;;;;;;5053390;28;19908;-72
2022/10/31 05:40:39;;;;;;;;;;;6.20;99.90;;;;;;5053119;28;19913;-72
2022/10/31 05:43:04;;;;;;;;;;;6.10;99.90;;;;;;5053135;28;19943;-72
2022/10/31 05:45:30;;;;;;;;;;;6.10;99.90;;;;;;5053133;28;19916;-70
2022/10/31 05:47:55;;;;;;;;;;;6.10;99.90;;;;;;5052987;28;19928;-71
2022/10/31 05:50:21;;;;;;;;;;;6.00;99.90;;;;;;5053066;28;19909;-71
2022/10/31 05:52:47;;;;;;;;;;;6.00;99.90;;;;;;5053031;28;19912;-71
2022/10/31 05:55:13;;;;;;;;;;;6.00;99.90;;;;;;5038680;28;19976;-71
2022/10/31 05:57:38;;;;;;;;;;;6.00;99.90;;;;;;5057098;28;19913;-72
2022/10/31 06:00:05;;;;;;;;;;;6.00;99.90;;;;;;5056852;28;19943;-71
2022/10/31 06:02:34;;;;;;;;;;;6.00;99.90;;;;;;5056978;28;19912;-72
2022/10/31 06:05:00;;;;;;;;;;;6.00;99.90;;;;;;5056778;28;19962;-72
2022/10/31 06:07:25;;;;;;;;;;;5.90;99.90;;;;;;5057017;28;19951;-72
2022/10/31 06:09:51;;;;;;;;;;;5.90;99.90;;;;;;5056660;28;19960;-72
2022/10/31 06:12:16;;;;;;;;;;;5.90;99.90;;;;;;5056470;28;19940;-72
2022/10/31 06:14:42;;;;;;;;;;;5.90;99.90;;;;;;5056564;28;19920;-72
2022/10/31 06:17:07;;;;;;;;;;;5.90;99.90;;;;;;5056498;28;19923;-72
2022/10/31 06:19:33;;;;;;;;;;;5.90;99.90;;;;;;5056727;28;19913;-72
2022/10/31 06:21:58;;;;;;;;;;;5.90;99.90;;;;;;5056501;28;19913;-72
2022/10/31 06:24:24;;;;;;;;;;;5.90;99.90;;;;;;5056692;28;20358;-72
2022/10/31 06:26:50;;;;;;;;;;;5.90;99.90;;;;;;5056338;28;20296;-72
2022/10/31 06:29:15;;;;;;;;;;;5.90;99.90;;;;;;5038453;28;20328;-72
2022/10/31 06:31:41;;;;;;;;;;;5.80;99.90;;;;;;5056176;28;20385;-72
2022/10/31 06:34:06;;;;;;;;;;;5.80;99.90;;;;;;5038312;28;20435;-72
2022/10/31 06:36:32;;;;;;;;;;;5.80;99.90;;;;;;5056144;28;20335;-72
2022/10/31 06:38:57;;;;;;;;;;;5.80;99.90;;;;;;5038730;28;20371;-72
2022/10/31 06:41:23;;;;;;;;;;;5.90;99.90;;;;;;5056263;28;20356;-72
2022/10/31 06:43:48;;;;;;;;;;;5.80;99.90;;;;;;5056294;28;20389;-72
2022/10/31 06:46:14;;;;;;;;;;;5.90;99.90;;;;;;5056289;28;20336;-72
2022/10/31 06:48:42;;;;;;;;;;;5.90;99.90;;;;;;5038122;28;20344;-72
2022/10/31 06:51:08;;;;;;;;;;;6.00;99.90;;;;;;5055939;28;19917;-71
2022/10/31 06:53:34;;;;;;;;;;;6.00;99.90;;;;;;5055806;28;19999;-72
2022/10/31 06:55:59;;;;;;;;;;;6.00;99.90;;;;;;5056095;28;19913;-72
2022/10/31 06:58:25;;;;;;;;;;;6.10;99.90;;;;;;5055727;28;19920;-72
2022/10/31 07:00:50;;;;;;;;;;;6.10;99.90;;;;;;5037919;28;20381;-71
2022/10/31 07:03:16;;;;;;;;;;;6.10;99.90;;;;;;5055607;28;20019;-72
2022/10/31 07:05:42;;;;;;;;;;;6.10;99.90;;;;;;5055954;28;19944;-71
2022/10/31 07:08:09;;;;;;;;;;;6.20;99.90;;;;;;5055823;28;20384;-72
2022/10/31 07:10:36;;;;;;;;;;;6.20;99.90;;;;;;5055443;28;19915;-71
2022/10/31 07:13:04;;;;;;;;;;;6.30;99.90;;;;;;5037442;28;20007;-72
2022/10/31 07:15:32;;;;;;;;;;;6.30;99.90;;;;;;5055363;28;19919;-71
2022/10/31 07:18:01;;;;;;;;;;;6.40;99.90;;;;;;5059564;28;20419;-72
2022/10/31 07:20:27;;;;;;;;;;;6.50;99.90;;;;;;5073824;28;19908;-72
2022/10/31 07:22:53;;;;;;;;;;;6.50;99.90;;;;;;5055812;28;19909;-72
2022/10/31 07:25:18;;;;;;;;;;;6.50;99.90;;;;;;5074627;28;19920;-72
2022/10/31 07:27:44;;;;;;;;;;;6.60;99.90;;;;;;5074547;28;20392;-72
2022/10/31 07:30:11;;;;;;;;;;;6.70;99.90;;;;;;5074842;28;20284;-72
2022/10/31 07:32:37;;;;;;;;;;;6.70;99.90;;;;;;5074430;28;20004;-72
2022/10/31 07:35:03;;;;;;;;;;;6.80;99.90;;;;;;5074883;28;19948;-72
2022/10/31 07:37:28;;;;;;;;;;;6.90;99.90;;;;;;5075076;28;20371;-72
2022/10/31 07:39:54;;;;;;;;;;;7.00;99.90;;;;;;5074939;28;19919;-72
2022/10/31 07:42:19;;;;;;;;;;;7.00;99.90;;;;;;5075177;28;20011;-72
2022/10/31 07:44:45;;;;;;;;;;;7.10;99.90;;;;;;5056962;28;19912;-72
2022/10/31 07:47:10;;;;;;;;;;;7.20;99.90;;;;;;5074800;28;19912;-72
2022/10/31 07:49:36;;;;;;;;;;;7.30;99.90;;;;;;5075798;28;19916;-72
2022/10/31 07:52:01;;;;;;;;;;;7.30;99.90;;;;;;5074653;28;19919;-72
2022/10/31 07:54:27;;;;;;;;;;;7.40;99.90;;;;;;5074679;28;19912;-72
2022/10/31 07:56:52;;;;;;;;;;;7.50;99.90;;;;;;5074875;28;20377;-72
2022/10/31 07:59:18;;;;;;;;;;;7.60;99.90;;;;;;5074532;28;19920;-72
2022/10/31 08:01:43;;;;;;;;;;;7.60;99.90;;;;;;5056531;28;20252;-72
2022/10/31 08:04:09;;;;;;;;;;;7.80;99.90;;;;;;5074434;28;19913;-72
2022/10/31 08:06:35;;;;;;;;;;;7.90;99.90;;;;;;5056847;28;19958;-72
2022/10/31 08:09:00;;;;;;;;;;;7.90;99.90;;;;;;5056382;28;19942;-72
2022/10/31 08:11:26;;;;;;;;;;;8.00;99.90;;;;;;5074364;28;19916;-72
2022/10/31 08:13:51;;;;;;;;;;;8.10;99.90;;;;;;5074112;28;19916;-72
2022/10/31 08:16:17;;;;;;;;;;;8.20;99.90;;;;;;5073610;28;19919;-72
2022/10/31 08:18:42;;;;;;;;;;;8.30;99.90;;;;;;5074165;28;20007;-72
2022/10/31 08:21:08;;;;;;;;;;;8.40;99.90;;;;;;5074185;28;19912;-72
2022/10/31 08:23:34;;;;;;;;;;;8.50;99.90;;;;;;5074340;28;20353;-72
2022/10/31 08:26:00;;;;;;;;;;;8.70;99.90;;;;;;5074090;28;19917;-72
2022/10/31 08:28:25;;;;;;;;;;;8.80;99.90;;;;;;5074202;28;19917;-72
2022/10/31 08:30:51;;;;;;;;;;;8.90;99.90;;;;;;5074247;28;19928;-72
2022/10/31 08:33:17;;;;;;;;;;;9.00;99.90;;;;;;5073890;28;19942;-72
2022/10/31 08:35:43;;;;;;;;;;;9.10;99.90;;;;;;5073961;28;19909;-72
2022/10/31 08:38:12;;;;;;;;;;;9.20;99.90;;;;;;5073895;28;20370;-72
2022/10/31 08:40:38;;;;;;;;;;;9.30;99.90;;;;;;5073858;28;19967;-72
2022/10/31 08:43:03;;;;;;;;;;;9.50;99.90;;;;;;5073781;28;19908;-72
2022/10/31 08:45:30;;;;;;;;;;;9.60;99.90;;;;;;5073792;28;19908;-72
2022/10/31 08:48:02;;;;;;;;;;;9.70;99.90;;;;;;5066097;28;19913;-72
2022/10/31 08:50:29;;;;;;;;;;;9.80;99.90;;;;;;5054013;28;19940;-72
2022/10/31 08:52:59;;;;;;;;;;;9.90;99.90;;;;;;5053658;28;19920;-72
2022/10/31 08:55:25;;;;;;;;;;;10.10;99.90;;;;;;5033782;28;19921;-71
2022/10/31 08:57:54;;;;;;;;;;;10.20;99.90;;;;;;5015955;28;19913;-71
2022/10/31 09:00:20;;;;;;;;;;;10.30;99.90;;;;;;5033680;28;19917;-71
2022/10/31 09:02:45;;;;;;;;;;;10.40;99.90;;;;;;5033698;28;19913;-71
2022/10/31 09:05:11;;;;;;;;;;;10.50;99.90;;;;;;5033576;28;19913;-71
2022/10/31 09:07:36;;;;;;;;;;;10.60;99.90;;;;;;5033853;28;20350;-71
2022/10/31 09:10:02;;;;;;;;;;;10.80;99.90;;;;;;5033490;28;20003;-71
2022/10/31 09:12:28;;;;;;;;;;;10.90;99.90;;;;;;5033233;28;19925;-71
2022/10/31 09:14:53;;;;;;;;;;;11.00;99.90;;;;;;5033788;28;19936;-71
2022/10/31 09:17:19;;;;;;;;;;;11.10;99.90;;;;;;5033787;28;19913;-71
2022/10/31 09:19:44;;;;;;;;;;;11.30;99.90;;;;;;5015793;28;20365;-71
2022/10/31 09:22:10;;;;;;;;;;;11.50;99.90;;;;;;5033688;28;20369;-71
2022/10/31 09:24:35;;;;;;;;;;;11.60;99.90;;;;;;5033420;28;20369;-71
2022/10/31 09:27:01;;;;;;;;;;;11.80;99.90;;;;;;5033366;28;20387;-71
2022/10/31 09:29:26;;;;;;;;;;;11.90;99.90;;;;;;5037293;28;19955;-71
2022/10/31 09:31:52;;;;;;;;;;;12.00;99.90;;;;;;5037606;28;19909;-71
2022/10/31 09:34:17;;;;;;;;;;;12.10;99.90;;;;;;5037434;28;19917;-71
2022/10/31 09:36:44;;;;;;;;;;;12.30;99.90;;;;;;5037348;28;19914;-71
2022/10/31 09:39:09;;;;;;;;;;;12.40;99.90;;;;;;5037538;28;19913;-71
2022/10/31 09:41:44;;;;;;;;;;;12.50;99.90;;;;;;5037462;28;19909;-71
2022/10/31 09:44:09;;;;;;;;;;;12.70;99.90;;;;;;5019268;28;20362;-71
2022/10/31 09:46:44;;;;;;;;;;;12.90;99.90;;;;;;5037685;28;19924;-71
2022/10/31 09:49:28;;;;;;;;;;;13.00;99.90;;;;;;5019276;28;19913;-71
2022/10/31 09:52:10;;;;;;;;;;;13.20;99.90;;;;;;5037021;28;19959;-71
2022/10/31 09:54:38;;;;;;;;;;;13.40;99.90;;;;;;5037106;28;20233;-72
2022/10/31 09:57:04;;;;;;;;;;;13.50;99.90;;;;;;5019208;28;19949;-71
2022/10/31 09:59:33;;;;;;;;;;;13.70;99.90;;;;;;5037177;28;19913;-71
2022/10/31 10:02:10;;;;;;;;;;;13.80;99.90;;;;;;5019005;28;19920;-72
2022/10/31 10:04:44;;;;;;;;;;;13.90;99.90;;;;;;5037150;28;19924;-71
2022/10/31 10:07:21;;;;;;;;;;;14.00;99.90;;;;;;5036760;28;19941;-71
2022/10/31 10:09:47;;;;;;;;;;;14.10;99.90;;;;;;5036758;28;19913;-71
2022/10/31 10:12:17;;;;;;;;;;;14.20;99.90;;;;;;5036551;28;20011;-71
2022/10/31 10:14:42;;;;;;;;;;;14.30;99.90;;;;;;5037018;28;19961;-71
2022/10/31 10:17:19;;;;;;;;;;;14.40;99.90;;;;;;5036673;28;20377;-71
2022/10/31 10:20:00;;;;;;;;;;;14.50;99.90;;;;;;5037213;28;19964;-71
2022/10/31 10:22:52;;;;;;;;;;;14.60;99.90;;;;;;5037145;28;19952;-70
2022/10/31 10:25:27;;;;;;;;;;;14.70;99.90;;;;;;5033411;28;19959;-70
2022/10/31 10:28:07;;;;;;;;;;;14.80;99.90;;;;;;5036797;28;19909;-70
2022/10/31 10:30:40;;;;;;;;;;;14.90;99.90;;;;;;5036431;28;19936;-70
2022/10/31 10:33:11;;;;;;;;;;;15.00;99.90;;;;;;5036267;28;19909;-70
2022/10/31 10:35:47;;;;;;;;;;;15.10;99.90;;;;;;5018517;28;19913;-70
2022/10/31 10:38:25;;;;;;;;;;;15.30;99.90;;;;;;5018475;28;19988;-70
2022/10/31 10:40:52;;;;;;;;;;;15.40;99.90;;;;;;5036155;28;20274;-70
2022/10/31 10:43:22;;;;;;;;;;;15.50;99.90;;;;;;5036034;28;20004;-70
2022/10/31 10:48:53;;;;;;;;;;;15.70;99.90;;;;;;5036305;28;20396;-70
2022/10/31 10:51:23;;;;;;;;;;;15.80;99.90;;;;;;5036275;28;19959;-70
2022/10/31 10:54:13;;;;;;;;;;;15.90;99.90;;;;;;5036261;28;19917;-70
2022/10/31 10:56:39;;;;;;;;;;;15.90;99.90;;;;;;5036239;28;19909;-70
2022/10/31 10:59:04;;;;;;;;;;;16.00;99.90;;;;;;5036227;28;20285;-70
2022/10/31 11:01:30;;;;;;;;;;;16.10;99.90;;;;;;5035804;28;19909;-70
2022/10/31 11:03:56;;;;;;;;;;;16.20;99.90;;;;;;5035657;28;19920;-70
2022/10/31 11:06:25;;;;;;;;;;;16.30;99.90;;;;;;5036008;28;19917;-70
2022/10/31 11:08:51;;;;;;;;;;;16.30;99.90;;;;;;5035603;28;19924;-70
2022/10/31 11:11:17;;;;;;;;;;;16.50;99.90;;;;;;5035931;28;19909;-70
2022/10/31 11:13:43;;;;;;;;;;;16.50;99.90;;;;;;5035459;28;19971;-70
2022/10/31 11:16:11;;;;;;;;;;;16.60;99.90;;;;;;5036047;28;19913;-70
2022/10/31 11:18:37;;;;;;;;;;;16.80;99.90;;;;;;5036367;28;20239;-70
2022/10/31 11:21:04;;;;;;;;;;;16.90;99.90;;;;;;5035626;28;19959;-75
2022/10/31 11:23:30;;;;;;;;;;;17.00;99.90;;;;;;5035418;28;20281;-74
2022/10/31 11:25:57;;;;;;;;;;;17.10;99.90;;;;;;5035385;28;19909;-75
2022/10/31 11:28:23;;;;;;;;;;;17.10;99.90;;;;;;5035515;28;20111;-75
2022/10/31 11:30:50;;;;;;;;;;;17.20;99.90;;;;;;5035288;28;20047;-75
2022/10/31 11:33:21;;;;;;;;;;;17.20;99.90;;;;;;5035724;28;19955;-74
2022/10/31 11:35:47;;;;;;;;;;;17.30;99.90;;;;;;5035315;28;20361;-74
2022/10/31 11:38:24;;;;;;;;;;;17.30;99.90;;;;;;5017482;28;19921;-75
2022/10/31 11:41:08;;;;;;;;;;;17.30;99.90;;;;;;5036042;28;19909;-74
2022/10/31 11:43:34;;;;;;;;;;;17.40;99.90;;;;;;5017286;28;19917;-74
2022/10/31 11:45:59;;;;;;;;;;;17.40;99.90;;;;;;5034975;28;19909;-75
2022/10/31 11:48:25;;;;;;;;;;;17.40;99.90;;;;;;5035188;28;20001;-75
2022/10/31 11:50:55;;;;;;;;;;;17.40;99.90;;;;;;5034249;28;19998;-74
2022/10/31 11:53:25;;;;;;;;;;;17.40;99.90;;;;;;5034688;28;20292;-75
2022/10/31 11:56:05;;;;;;;;;;;17.40;99.90;;;;;;5034735;28;19909;-75
2022/10/31 11:58:30;;;;;;;;;;;17.40;99.90;;;;;;5035256;28;19909;-74
2022/10/31 12:00:57;;;;;;;;;;;17.30;99.90;;;;;;5034926;28;19909;-75
2022/10/31 12:03:22;;;;;;;;;;;17.40;99.90;;;;;;5034837;28;19910;-74
2022/10/31 12:06:08;;;;;;;;;;;17.40;99.90;;;;;;5034639;28;19919;-74
2022/10/31 12:08:35;;;;;;;;;;;17.40;99.90;;;;;;5034097;28;20015;-74
2022/10/31 12:11:09;;;;;;;;;;;17.40;99.90;;;;;;5034450;28;20362;-74
2022/10/31 12:13:35;;;;;;;;;;;17.40;99.90;;;;;;5034400;28;19924;-75
2022/10/31 12:16:18;;;;;;;;;;;17.40;99.90;;;;;;5034360;28;19909;-74
2022/10/31 12:19:03;;;;;;;;;;;17.40;99.90;;;;;;5034680;28;19909;-75
2022/10/31 12:21:37;;;;;;;;;;;17.40;99.90;;;;;;5034606;28;20280;-74
2022/10/31 12:24:03;;;;;;;;;;;17.40;99.90;;;;;;5034236;28;19948;-74
2022/10/31 12:26:43;;;;;;;;;;;17.40;99.90;;;;;;5016554;28;20372;-74
2022/10/31 12:29:27;;;;;;;;;;;17.50;99.90;;;;;;5016527;28;20012;-74
2022/10/31 12:31:53;;;;;;;;;;;17.50;99.90;;;;;;5034333;28;19972;-74
2022/10/31 12:34:33;;;;;;;;;;;17.50;99.90;;;;;;5034645;28;19921;-74
2022/10/31 12:37:16;;;;;;;;;;;17.50;99.90;;;;;;5034312;28;20007;-72
2022/10/31 12:39:58;;;;;;;;;;;17.50;99.90;;;;;;5034272;28;19951;-72
2022/10/31 12:42:24;;;;;;;;;;;17.50;99.90;;;;;;5033930;28;19916;-72
2022/10/31 12:44:52;;;;;;;;;;;17.60;99.90;;;;;;5033930;28;19909;-72
2022/10/31 12:47:29;;;;;;;;;;;17.60;99.90;;;;;;5033859;28;19913;-74
2022/10/31 12:50:07;;;;;;;;;;;17.70;99.90;;;;;;5034397;28;20016;-74
2022/10/31 12:52:51;;;;;;;;;;;17.70;99.90;;;;;;5033758;28;19910;-73
2022/10/31 12:55:37;;;;;;;;;;;17.70;99.90;;;;;;5033804;28;19909;-74
2022/10/31 12:58:13;;;;;;;;;;;17.80;99.90;;;;;;4996155;28;19917;-74
2022/10/31 13:00:41;;;;;;;;;;;17.80;99.90;;;;;;5015969;28;19913;-74
2022/10/31 13:03:23;;;;;;;;;;;17.90;99.90;;;;;;5033473;28;19909;-73
2022/10/31 13:05:51;;;;;;;;;;;17.80;99.90;;;;;;5033746;28;20012;-74
2022/10/31 13:08:19;;;;;;;;;;;17.90;99.90;;;;;;5034259;28;20293;-74
2022/10/31 13:11:11;;;;;;;;;;;17.80;99.90;;;;;;5033584;28;19916;-74
2022/10/31 13:13:43;;;;;;;;;;;17.80;99.90;;;;;;5030364;28;19924;-74
2022/10/31 13:16:14;;;;;;;;;;;17.80;99.90;;;;;;5033877;28;19955;-75
2022/10/31 13:18:43;;;;;;;;;;;17.80;99.90;;;;;;5033568;28;19932;-74
2022/10/31 13:21:12;;;;;;;;;;;17.90;99.90;;;;;;5033470;28;19913;-74
2022/10/31 13:23:39;;;;;;;;;;;17.80;99.90;;;;;;5033432;28;19910;-74
2022/10/31 13:26:16;;;;;;;;;;;17.90;99.90;;;;;;5033525;28;19920;-75
2022/10/31 13:28:47;;;;;;;;;;;17.90;99.90;;;;;;5033438;28;19913;-74
2022/10/31 13:31:13;;;;;;;;;;;17.90;99.90;;;;;;5015788;28;20023;-74
2022/10/31 13:33:51;;;;;;;;;;;17.80;99.90;;;;;;5033733;28;19913;-74
2022/10/31 13:36:23;;;;;;;;;;;17.80;99.90;;;;;;5033459;28;20366;-74
2022/10/31 13:38:51;;;;;;;;;;;17.80;99.90;;;;;;5033349;28;19913;-74
2022/10/31 13:41:32;;;;;;;;;;;17.80;99.90;;;;;;5033408;28;19913;-74
2022/10/31 13:44:13;;;;;;;;;;;17.80;99.90;;;;;;5033208;28;19913;-74
2022/10/31 13:46:40;;;;;;;;;;;17.80;99.90;;;;;;5033338;28;19924;-74
2022/10/31 13:49:24;;;;;;;;;;;17.80;99.90;;;;;;5033510;28;19913;-74
2022/10/31 13:51:52;;;;;;;;;;;17.80;99.90;;;;;;5033073;28;19909;-74
2022/10/31 13:54:22;;;;;;;;;;;17.80;99.90;;;;;;5033522;28;19917;-74
2022/10/31 13:56:49;;;;;;;;;;;17.80;99.90;;;;;;5033041;28;19928;-74
2022/10/31 13:59:19;;;;;;;;;;;17.80;99.90;;;;;;5033118;28;19916;-74
2022/10/31 14:01:46;;;;;;;;;;;17.70;99.90;;;;;;5015282;28;19916;-73
2022/10/31 14:04:15;;;;;;;;;;;17.70;99.90;;;;;;5033094;28;20339;-74
2022/10/31 14:06:49;;;;;;;;;;;17.60;99.90;;;;;;5033124;28;19959;-74
2022/10/31 14:09:19;;;;;;;;;;;17.60;99.90;;;;;;5033174;28;19913;-74
2022/10/31 14:11:46;;;;;;;;;;;17.60;99.90;;;;;;5032849;28;19909;-75
2022/10/31 14:14:12;;;;;;;;;;;17.50;99.90;;;;;;5033569;28;19970;-74
2022/10/31 14:16:38;;;;;;;;;;;17.50;99.90;;;;;;5036858;28;20016;-74
2022/10/31 14:19:05;;;;;;;;;;;17.50;99.90;;;;;;5019001;28;19909;-74
2022/10/31 14:21:37;;;;;;;;;;;17.50;99.90;;;;;;5036799;28;19948;-74
2022/10/31 14:24:12;;;;;;;;;;;17.50;99.90;;;;;;5036753;28;19941;-73
2022/10/31 14:26:38;;;;;;;;;;;17.50;99.90;;;;;;5018852;28;19945;-74
2022/10/31 14:29:12;;;;;;;;;;;17.50;99.90;;;;;;5018636;28;20006;-74
2022/10/31 14:31:42;;;;;;;;;;;17.50;99.90;;;;;;5019019;28;19913;-74
2022/10/31 14:34:11;;;;;;;;;;;17.50;99.90;;;;;;5037272;28;20006;-74
2022/10/31 14:36:37;;;;;;;;;;;17.50;99.90;;;;;;5036276;28;19940;-74